Main page
METAR-TAF:

METAR-TAF

Airports :

Heathrow Airport

London-Heathrow, England

latitude: 51-29N, longitude: 000-27W, elevation: 24 m

Current weather observation

The report was made 24 minutes ago, at 08:50 UTC
Wind 7 kt from the West
Temperature 6°C
Humidity 81%
Pressure 1035 hPa
Visibility 10 km or more

METAR: EGLL 260850Z AUTO 28007KT 9999 NCD 06/03 Q1035 NOSIG

Time: 09:14 (09:14 UTC)

Forecast

The report was made 4 hours and 22 minutes ago, at 04:52 UTC
Forecast valid from 26 at 06 UTC to 27 at 12 UTC
Wind 3 kt from variable directions
Visibility 10 km or more
Few clouds at a height of 4000 ft
Probability 30%
from 26 at 06 UTC to 26 at 09 UTC
Visibility: 8000 m
Becoming
from 26 at 08 UTC to 26 at 11 UTC
Wind 10 kt from the North/Northwest
Becoming
from 26 at 20 UTC to 26 at 23 UTC
Wind 3 kt from variable directions

TAF: EGLL 260452Z 2606/2712 VRB03KT 9999 FEW040 PROB30 2606/2609 8000 BECMG 2608/2611 33010KT BECMG 2620/2623 VRB03KT

Weather observations and forecasts of more than 4000 airports (METAR and TAF reports).

The available stations are represented by yellow and red dots on the map.

Hover mouse over dot to see the name of the station.

Then click to see weather observations and forecasts.

To change the map : click on the green buttons with a black cross to zoom in, on the green button with a dash to zoom out, or on the green arrows for adjacent maps.


METAR-TAF: